sensor_id;sensor_type;location;lat;lon;timestamp;P1;durP1;ratioP1;P2;durP2;ratioP2
75171;SDS011;63750;52.418;20.742;2022-11-11T00:01:08;43.40;;;35.10;;
75171;SDS011;63750;52.418;20.742;2022-11-11T00:03:39;41.20;;;34.60;;
75171;SDS011;63750;52.418;20.742;2022-11-11T00:06:10;43.10;;;34.00;;
75171;SDS011;63750;52.418;20.742;2022-11-11T00:08:40;40.60;;;33.90;;
75171;SDS011;63750;52.418;20.742;2022-11-11T00:11:13;39.90;;;33.40;;
75171;SDS011;63750;52.418;20.742;2022-11-11T00:13:54;42.80;;;35.10;;
75171;SDS011;63750;52.418;20.742;2022-11-11T00:16:22;42.00;;;33.20;;
75171;SDS011;63750;52.418;20.742;2022-11-11T00:18:51;42.00;;;33.60;;
75171;SDS011;63750;52.418;20.742;2022-11-11T00:21:20;47.00;;;34.00;;
75171;SDS011;63750;52.418;20.742;2022-11-11T00:23:49;42.50;;;33.60;;
75171;SDS011;63750;52.418;20.742;2022-11-11T00:26:18;42.90;;;32.90;;
75171;SDS011;63750;52.418;20.742;2022-11-11T00:28:47;37.20;;;32.20;;
75171;SDS011;63750;52.418;20.742;2022-11-11T00:31:16;40.10;;;31.80;;
75171;SDS011;63750;52.418;20.742;2022-11-11T00:33:45;40.50;;;32.70;;
75171;SDS011;63750;52.418;20.742;2022-11-11T00:36:13;39.70;;;32.20;;
75171;SDS011;63750;52.418;20.742;2022-11-11T00:38:42;40.80;;;31.40;;
75171;SDS011;63750;52.418;20.742;2022-11-11T00:41:10;40.20;;;32.60;;
75171;SDS011;63750;52.418;20.742;2022-11-11T00:43:44;42.00;;;32.40;;
75171;SDS011;63750;52.418;20.742;2022-11-11T00:46:14;40.20;;;31.90;;
75171;SDS011;63750;52.418;20.742;2022-11-11T00:48:44;40.20;;;32.50;;
75171;SDS011;63750;52.418;20.742;2022-11-11T00:51:12;41.50;;;34.10;;
75171;SDS011;63750;52.418;20.742;2022-11-11T00:53:41;40.80;;;33.30;;
75171;SDS011;63750;52.418;20.742;2022-11-11T00:56:09;43.20;;;34.20;;
75171;SDS011;63750;52.418;20.742;2022-11-11T00:58:38;42.30;;;34.70;;
75171;SDS011;63750;52.418;20.742;2022-11-11T01:01:07;43.40;;;33.10;;
75171;SDS011;63750;52.418;20.742;2022-11-11T01:03:35;41.50;;;33.90;;
75171;SDS011;63750;52.418;20.742;2022-11-11T01:06:04;46.90;;;33.60;;
75171;SDS011;63750;52.418;20.742;2022-11-11T01:08:33;45.40;;;34.70;;
75171;SDS011;63750;52.418;20.742;2022-11-11T01:11:01;39.90;;;33.30;;
75171;SDS011;63750;52.418;20.742;2022-11-11T01:13:30;42.90;;;34.70;;
75171;SDS011;63750;52.418;20.742;2022-11-11T01:15:59;40.90;;;33.30;;
75171;SDS011;63750;52.418;20.742;2022-11-11T01:18:29;40.30;;;32.60;;
75171;SDS011;63750;52.418;20.742;2022-11-11T01:20:58;42.10;;;34.20;;
75171;SDS011;63750;52.418;20.742;2022-11-11T01:23:28;47.30;;;35.70;;
75171;SDS011;63750;52.418;20.742;2022-11-11T01:26:01;46.10;;;35.50;;
75171;SDS011;63750;52.418;20.742;2022-11-11T01:28:31;39.50;;;34.50;;
75171;SDS011;63750;52.418;20.742;2022-11-11T01:31:01;44.50;;;33.00;;
75171;SDS011;63750;52.418;20.742;2022-11-11T01:33:30;42.90;;;33.60;;
75171;SDS011;63750;52.418;20.742;2022-11-11T01:36:03;41.10;;;32.50;;
75171;SDS011;63750;52.418;20.742;2022-11-11T01:38:33;41.20;;;33.20;;
75171;SDS011;63750;52.418;20.742;2022-11-11T01:41:02;40.90;;;33.70;;
75171;SDS011;63750;52.418;20.742;2022-11-11T01:43:31;43.10;;;33.30;;
75171;SDS011;63750;52.418;20.742;2022-11-11T01:46:00;46.00;;;34.40;;
75171;SDS011;63750;52.418;20.742;2022-11-11T01:48:32;45.40;;;34.50;;
75171;SDS011;63750;52.418;20.742;2022-11-11T01:51:05;42.00;;;33.00;;
75171;SDS011;63750;52.418;20.742;2022-11-11T01:53:41;44.70;;;34.60;;
75171;SDS011;63750;52.418;20.742;2022-11-11T01:56:10;42.30;;;32.20;;
75171;SDS011;63750;52.418;20.742;2022-11-11T01:58:39;40.40;;;32.20;;
75171;SDS011;63750;52.418;20.742;2022-11-11T02:01:08;38.40;;;32.60;;
75171;SDS011;63750;52.418;20.742;2022-11-11T02:03:39;42.30;;;35.50;;
75171;SDS011;63750;52.418;20.742;2022-11-11T02:06:09;41.10;;;34.10;;
75171;SDS011;63750;52.418;20.742;2022-11-11T02:08:39;43.60;;;34.80;;
75171;SDS011;63750;52.418;20.742;2022-11-11T02:11:10;44.10;;;34.00;;
75171;SDS011;63750;52.418;20.742;2022-11-11T02:13:42;40.20;;;32.80;;
75171;SDS011;63750;52.418;20.742;2022-11-11T02:16:11;40.80;;;32.50;;
75171;SDS011;63750;52.418;20.742;2022-11-11T02:18:40;42.40;;;32.80;;
75171;SDS011;63750;52.418;20.742;2022-11-11T02:21:10;43.60;;;33.20;;
75171;SDS011;63750;52.418;20.742;2022-11-11T02:26:18;39.80;;;31.60;;
75171;SDS011;63750;52.418;20.742;2022-11-11T02:28:48;41.40;;;32.70;;
75171;SDS011;63750;52.418;20.742;2022-11-11T02:31:18;44.90;;;33.60;;
75171;SDS011;63750;52.418;20.742;2022-11-11T02:33:52;39.50;;;32.00;;
75171;SDS011;63750;52.418;20.742;2022-11-11T02:36:20;42.90;;;31.50;;
75171;SDS011;63750;52.418;20.742;2022-11-11T02:38:50;39.80;;;32.60;;
75171;SDS011;63750;52.418;20.742;2022-11-11T02:41:19;40.20;;;34.10;;
75171;SDS011;63750;52.418;20.742;2022-11-11T02:43:48;39.70;;;31.70;;
75171;SDS011;63750;52.418;20.742;2022-11-11T02:46:16;45.30;;;33.80;;
75171;SDS011;63750;52.418;20.742;2022-11-11T02:48:45;37.40;;;31.40;;
75171;SDS011;63750;52.418;20.742;2022-11-11T02:51:13;40.90;;;32.70;;
75171;SDS011;63750;52.418;20.742;2022-11-11T02:53:41;45.70;;;33.00;;
75171;SDS011;63750;52.418;20.742;2022-11-11T02:56:10;42.00;;;33.40;;
75171;SDS011;63750;52.418;20.742;2022-11-11T02:58:39;39.70;;;32.00;;
75171;SDS011;63750;52.418;20.742;2022-11-11T03:01:08;42.00;;;31.60;;
75171;SDS011;63750;52.418;20.742;2022-11-11T03:03:37;42.60;;;32.10;;
75171;SDS011;63750;52.418;20.742;2022-11-11T03:06:05;40.90;;;31.80;;
75171;SDS011;63750;52.418;20.742;2022-11-11T03:08:34;42.90;;;34.90;;
75171;SDS011;63750;52.418;20.742;2022-11-11T03:11:02;41.30;;;33.20;;
75171;SDS011;63750;52.418;20.742;2022-11-11T03:13:31;40.30;;;31.70;;
75171;SDS011;63750;52.418;20.742;2022-11-11T03:15:59;41.60;;;32.00;;
75171;SDS011;63750;52.418;20.742;2022-11-11T03:18:29;40.80;;;31.40;;
75171;SDS011;63750;52.418;20.742;2022-11-11T03:20:57;40.50;;;31.20;;
75171;SDS011;63750;52.418;20.742;2022-11-11T03:23:26;39.00;;;30.30;;
75171;SDS011;63750;52.418;20.742;2022-11-11T03:25:54;40.00;;;31.20;;
75171;SDS011;63750;52.418;20.742;2022-11-11T03:28:23;40.40;;;30.90;;
75171;SDS011;63750;52.418;20.742;2022-11-11T03:30:52;41.80;;;31.40;;
75171;SDS011;63750;52.418;20.742;2022-11-11T03:33:21;39.60;;;30.90;;
75171;SDS011;63750;52.418;20.742;2022-11-11T03:35:52;39.60;;;30.10;;
75171;SDS011;63750;52.418;20.742;2022-11-11T03:38:21;39.30;;;30.90;;
75171;SDS011;63750;52.418;20.742;2022-11-11T03:40:50;38.60;;;29.50;;
75171;SDS011;63750;52.418;20.742;2022-11-11T03:43:20;36.80;;;29.40;;
75171;SDS011;63750;52.418;20.742;2022-11-11T03:45:51;38.60;;;29.80;;
75171;SDS011;63750;52.418;20.742;2022-11-11T03:48:21;37.30;;;29.40;;
75171;SDS011;63750;52.418;20.742;2022-11-11T03:50:51;36.30;;;28.60;;
75171;SDS011;63750;52.418;20.742;2022-11-11T03:53:19;37.00;;;29.30;;
75171;SDS011;63750;52.418;20.742;2022-11-11T03:55:50;38.90;;;29.00;;
75171;SDS011;63750;52.418;20.742;2022-11-11T03:58:19;38.40;;;30.20;;
75171;SDS011;63750;52.418;20.742;2022-11-11T04:00:47;34.90;;;28.90;;
75171;SDS011;63750;52.418;20.742;2022-11-11T04:03:16;39.00;;;28.40;;
75171;SDS011;63750;52.418;20.742;2022-11-11T04:05:45;40.00;;;29.60;;
75171;SDS011;63750;52.418;20.742;2022-11-11T04:08:14;37.40;;;28.30;;
75171;SDS011;63750;52.418;20.742;2022-11-11T04:10:44;39.10;;;29.30;;
75171;SDS011;63750;52.418;20.742;2022-11-11T04:13:13;36.90;;;28.00;;
75171;SDS011;63750;52.418;20.742;2022-11-11T04:15:41;35.50;;;28.10;;
75171;SDS011;63750;52.418;20.742;2022-11-11T04:18:09;33.90;;;28.30;;
75171;SDS011;63750;52.418;20.742;2022-11-11T04:20:38;35.30;;;27.40;;
75171;SDS011;63750;52.418;20.742;2022-11-11T04:23:08;34.20;;;26.30;;
75171;SDS011;63750;52.418;20.742;2022-11-11T04:25:37;33.90;;;26.40;;
75171;SDS011;63750;52.418;20.742;2022-11-11T04:28:05;33.30;;;26.40;;
75171;SDS011;63750;52.418;20.742;2022-11-11T04:30:33;32.20;;;24.60;;
75171;SDS011;63750;52.418;20.742;2022-11-11T04:33:03;34.50;;;25.50;;
75171;SDS011;63750;52.418;20.742;2022-11-11T04:35:31;35.40;;;25.20;;
75171;SDS011;63750;52.418;20.742;2022-11-11T04:37:59;30.40;;;24.50;;
75171;SDS011;63750;52.418;20.742;2022-11-11T04:40:28;30.40;;;24.60;;
75171;SDS011;63750;52.418;20.742;2022-11-11T04:42:57;32.90;;;24.40;;
75171;SDS011;63750;52.418;20.742;2022-11-11T04:45:25;31.10;;;24.50;;
75171;SDS011;63750;52.418;20.742;2022-11-11T04:47:55;29.00;;;24.50;;
75171;SDS011;63750;52.418;20.742;2022-11-11T04:50:25;30.20;;;24.20;;
75171;SDS011;63750;52.418;20.742;2022-11-11T04:52:54;28.20;;;23.40;;
75171;SDS011;63750;52.418;20.742;2022-11-11T04:55:23;32.10;;;23.60;;
75171;SDS011;63750;52.418;20.742;2022-11-11T04:57:52;31.70;;;23.70;;
75171;SDS011;63750;52.418;20.742;2022-11-11T05:00:20;29.60;;;22.80;;
75171;SDS011;63750;52.418;20.742;2022-11-11T05:02:51;31.30;;;23.50;;
75171;SDS011;63750;52.418;20.742;2022-11-11T05:05:21;30.10;;;23.70;;
75171;SDS011;63750;52.418;20.742;2022-11-11T05:07:50;30.10;;;22.90;;
75171;SDS011;63750;52.418;20.742;2022-11-11T05:10:19;28.20;;;22.40;;
75171;SDS011;63750;52.418;20.742;2022-11-11T05:12:48;29.10;;;22.50;;
75171;SDS011;63750;52.418;20.742;2022-11-11T05:15:16;30.40;;;22.80;;
75171;SDS011;63750;52.418;20.742;2022-11-11T05:17:45;28.00;;;23.10;;
75171;SDS011;63750;52.418;20.742;2022-11-11T05:20:14;35.00;;;24.20;;
75171;SDS011;63750;52.418;20.742;2022-11-11T05:22:42;29.20;;;21.80;;
75171;SDS011;63750;52.418;20.742;2022-11-11T05:25:11;29.30;;;21.00;;
75171;SDS011;63750;52.418;20.742;2022-11-11T05:27:40;29.70;;;22.30;;
75171;SDS011;63750;52.418;20.742;2022-11-11T05:30:09;27.90;;;21.60;;
75171;SDS011;63750;52.418;20.742;2022-11-11T05:32:41;28.40;;;20.90;;
75171;SDS011;63750;52.418;20.742;2022-11-11T05:35:10;26.90;;;21.30;;
75171;SDS011;63750;52.418;20.742;2022-11-11T05:37:39;26.30;;;20.80;;
75171;SDS011;63750;52.418;20.742;2022-11-11T05:40:09;27.50;;;21.40;;
75171;SDS011;63750;52.418;20.742;2022-11-11T05:42:41;30.10;;;21.40;;
75171;SDS011;63750;52.418;20.742;2022-11-11T05:45:10;24.10;;;19.60;;
75171;SDS011;63750;52.418;20.742;2022-11-11T05:47:39;25.40;;;20.10;;
75171;SDS011;63750;52.418;20.742;2022-11-11T05:50:08;24.80;;;19.80;;
75171;SDS011;63750;52.418;20.742;2022-11-11T05:52:37;27.00;;;20.80;;
75171;SDS011;63750;52.418;20.742;2022-11-11T05:55:06;25.50;;;20.50;;
75171;SDS011;63750;52.418;20.742;2022-11-11T05:57:35;28.90;;;21.30;;
75171;SDS011;63750;52.418;20.742;2022-11-11T06:00:05;22.10;;;18.40;;
75171;SDS011;63750;52.418;20.742;2022-11-11T06:02:35;25.70;;;20.10;;
75171;SDS011;63750;52.418;20.742;2022-11-11T06:05:03;27.50;;;19.80;;
75171;SDS011;63750;52.418;20.742;2022-11-11T06:07:32;24.00;;;18.90;;
75171;SDS011;63750;52.418;20.742;2022-11-11T06:10:02;23.90;;;19.20;;
75171;SDS011;63750;52.418;20.742;2022-11-11T06:12:32;24.70;;;18.90;;
75171;SDS011;63750;52.418;20.742;2022-11-11T06:15:00;24.40;;;18.70;;
75171;SDS011;63750;52.418;20.742;2022-11-11T06:17:29;24.80;;;18.50;;
75171;SDS011;63750;52.418;20.742;2022-11-11T06:19:59;23.40;;;18.00;;
75171;SDS011;63750;52.418;20.742;2022-11-11T06:22:28;24.30;;;19.20;;
75171;SDS011;63750;52.418;20.742;2022-11-11T06:24:56;24.00;;;18.50;;
75171;SDS011;63750;52.418;20.742;2022-11-11T06:27:25;25.90;;;18.60;;
75171;SDS011;63750;52.418;20.742;2022-11-11T06:29:53;22.50;;;17.60;;
75171;SDS011;63750;52.418;20.742;2022-11-11T06:32:21;26.60;;;19.10;;
75171;SDS011;63750;52.418;20.742;2022-11-11T06:34:53;24.30;;;18.50;;
75171;SDS011;63750;52.418;20.742;2022-11-11T06:37:21;25.40;;;18.00;;
75171;SDS011;63750;52.418;20.742;2022-11-11T06:39:49;22.90;;;18.60;;
75171;SDS011;63750;52.418;20.742;2022-11-11T06:42:18;20.90;;;17.00;;
75171;SDS011;63750;52.418;20.742;2022-11-11T06:44:47;23.80;;;17.30;;
75171;SDS011;63750;52.418;20.742;2022-11-11T06:47:15;20.70;;;17.10;;
75171;SDS011;63750;52.418;20.742;2022-11-11T06:49:43;22.30;;;17.70;;
75171;SDS011;63750;52.418;20.742;2022-11-11T06:52:12;24.90;;;17.50;;
75171;SDS011;63750;52.418;20.742;2022-11-11T06:54:40;22.10;;;17.40;;
75171;SDS011;63750;52.418;20.742;2022-11-11T06:57:12;23.20;;;17.20;;
75171;SDS011;63750;52.418;20.742;2022-11-11T06:59:41;24.40;;;17.90;;
75171;SDS011;63750;52.418;20.742;2022-11-11T07:02:11;22.60;;;17.80;;
75171;SDS011;63750;52.418;20.742;2022-11-11T07:04:40;23.10;;;17.40;;
75171;SDS011;63750;52.418;20.742;2022-11-11T07:07:09;23.60;;;16.90;;
75171;SDS011;63750;52.418;20.742;2022-11-11T07:09:38;21.70;;;17.00;;
75171;SDS011;63750;52.418;20.742;2022-11-11T07:12:07;23.60;;;17.50;;
75171;SDS011;63750;52.418;20.742;2022-11-11T07:14:35;21.40;;;17.60;;
75171;SDS011;63750;52.418;20.742;2022-11-11T07:17:05;22.80;;;16.70;;
75171;SDS011;63750;52.418;20.742;2022-11-11T07:19:34;23.80;;;17.10;;
75171;SDS011;63750;52.418;20.742;2022-11-11T07:22:02;25.50;;;17.20;;
75171;SDS011;63750;52.418;20.742;2022-11-11T07:24:30;21.00;;;16.00;;
75171;SDS011;63750;52.418;20.742;2022-11-11T07:26:59;21.60;;;16.20;;
75171;SDS011;63750;52.418;20.742;2022-11-11T07:29:27;21.40;;;16.20;;
75171;SDS011;63750;52.418;20.742;2022-11-11T07:31:56;23.60;;;16.70;;
75171;SDS011;63750;52.418;20.742;2022-11-11T07:34:25;21.90;;;16.00;;
75171;SDS011;63750;52.418;20.742;2022-11-11T07:36:54;20.40;;;16.40;;
75171;SDS011;63750;52.418;20.742;2022-11-11T07:39:23;20.40;;;16.50;;
75171;SDS011;63750;52.418;20.742;2022-11-11T07:41:52;21.90;;;16.40;;
75171;SDS011;63750;52.418;20.742;2022-11-11T07:44:20;22.00;;;16.30;;
75171;SDS011;63750;52.418;20.742;2022-11-11T07:46:49;19.50;;;17.00;;
75171;SDS011;63750;52.418;20.742;2022-11-11T07:49:17;21.30;;;17.00;;
75171;SDS011;63750;52.418;20.742;2022-11-11T07:51:46;20.30;;;16.40;;
75171;SDS011;63750;52.418;20.742;2022-11-11T07:54:15;21.20;;;16.30;;
75171;SDS011;63750;52.418;20.742;2022-11-11T07:56:44;20.90;;;16.40;;
75171;SDS011;63750;52.418;20.742;2022-11-11T07:59:13;18.80;;;15.10;;
75171;SDS011;63750;52.418;20.742;2022-11-11T08:01:41;19.90;;;16.10;;
75171;SDS011;63750;52.418;20.742;2022-11-11T08:04:11;19.90;;;15.40;;
75171;SDS011;63750;52.418;20.742;2022-11-11T08:06:39;21.20;;;15.40;;
75171;SDS011;63750;52.418;20.742;2022-11-11T08:09:08;20.50;;;16.30;;
75171;SDS011;63750;52.418;20.742;2022-11-11T08:11:37;18.60;;;15.80;;
75171;SDS011;63750;52.418;20.742;2022-11-11T08:14:05;19.50;;;15.20;;
75171;SDS011;63750;52.418;20.742;2022-11-11T08:16:34;18.90;;;15.50;;
75171;SDS011;63750;52.418;20.742;2022-11-11T08:19:03;20.30;;;16.00;;
75171;SDS011;63750;52.418;20.742;2022-11-11T08:21:31;26.00;;;16.60;;
75171;SDS011;63750;52.418;20.742;2022-11-11T08:24:00;23.20;;;15.90;;
75171;SDS011;63750;52.418;20.742;2022-11-11T08:26:28;19.50;;;15.40;;
75171;SDS011;63750;52.418;20.742;2022-11-11T08:28:57;20.30;;;15.00;;
75171;SDS011;63750;52.418;20.742;2022-11-11T08:31:26;22.60;;;15.90;;
75171;SDS011;63750;52.418;20.742;2022-11-11T08:33:54;18.40;;;15.50;;
75171;SDS011;63750;52.418;20.742;2022-11-11T08:36:23;17.50;;;14.40;;
75171;SDS011;63750;52.418;20.742;2022-11-11T08:38:52;20.00;;;15.70;;
75171;SDS011;63750;52.418;20.742;2022-11-11T08:41:20;21.20;;;15.30;;
75171;SDS011;63750;52.418;20.742;2022-11-11T08:43:51;18.00;;;14.10;;
75171;SDS011;63750;52.418;20.742;2022-11-11T08:46:20;20.80;;;15.90;;
75171;SDS011;63750;52.418;20.742;2022-11-11T08:48:49;17.10;;;14.50;;
75171;SDS011;63750;52.418;20.742;2022-11-11T08:51:18;19.60;;;15.20;;
75171;SDS011;63750;52.418;20.742;2022-11-11T08:53:47;19.10;;;14.60;;
75171;SDS011;63750;52.418;20.742;2022-11-11T08:56:15;17.90;;;14.20;;
75171;SDS011;63750;52.418;20.742;2022-11-11T08:58:44;16.90;;;14.10;;
75171;SDS011;63750;52.418;20.742;2022-11-11T09:01:13;20.20;;;14.10;;
75171;SDS011;63750;52.418;20.742;2022-11-11T09:03:41;20.10;;;14.50;;
75171;SDS011;63750;52.418;20.742;2022-11-11T09:06:10;16.80;;;13.80;;
75171;SDS011;63750;52.418;20.742;2022-11-11T09:08:40;18.50;;;14.30;;
75171;SDS011;63750;52.418;20.742;2022-11-11T09:11:09;18.70;;;14.40;;
75171;SDS011;63750;52.418;20.742;2022-11-11T09:13:37;20.80;;;13.90;;
75171;SDS011;63750;52.418;20.742;2022-11-11T09:16:06;17.20;;;13.80;;
75171;SDS011;63750;52.418;20.742;2022-11-11T09:18:35;18.00;;;13.60;;
75171;SDS011;63750;52.418;20.742;2022-11-11T09:21:04;16.90;;;13.60;;
75171;SDS011;63750;52.418;20.742;2022-11-11T09:23:34;17.90;;;13.60;;
75171;SDS011;63750;52.418;20.742;2022-11-11T09:26:03;19.70;;;14.00;;
75171;SDS011;63750;52.418;20.742;2022-11-11T09:28:31;18.90;;;14.00;;
75171;SDS011;63750;52.418;20.742;2022-11-11T09:31:00;17.80;;;13.60;;
75171;SDS011;63750;52.418;20.742;2022-11-11T09:33:29;18.00;;;13.10;;
75171;SDS011;63750;52.418;20.742;2022-11-11T09:35:58;15.40;;;12.70;;
75171;SDS011;63750;52.418;20.742;2022-11-11T09:38:26;16.10;;;12.80;;
75171;SDS011;63750;52.418;20.742;2022-11-11T09:41:03;19.50;;;13.60;;
75171;SDS011;63750;52.418;20.742;2022-11-11T09:43:44;18.40;;;13.40;;
75171;SDS011;63750;52.418;20.742;2022-11-11T09:46:30;16.50;;;13.80;;
75171;SDS011;63750;52.418;20.742;2022-11-11T09:49:06;16.10;;;13.30;;
75171;SDS011;63750;52.418;20.742;2022-11-11T09:51:45;15.40;;;12.70;;
75171;SDS011;63750;52.418;20.742;2022-11-11T09:54:23;16.80;;;12.70;;
75171;SDS011;63750;52.418;20.742;2022-11-11T09:56:56;16.20;;;12.70;;
75171;SDS011;63750;52.418;20.742;2022-11-11T09:59:29;16.90;;;12.70;;
75171;SDS011;63750;52.418;20.742;2022-11-11T10:02:07;16.80;;;12.10;;
75171;SDS011;63750;52.418;20.742;2022-11-11T10:04:48;19.10;;;12.60;;
75171;SDS011;63750;52.418;20.742;2022-11-11T10:07:25;16.30;;;12.30;;
75171;SDS011;63750;52.418;20.742;2022-11-11T10:10:02;17.40;;;13.70;;
75171;SDS011;63750;52.418;20.742;2022-11-11T10:12:38;15.60;;;12.80;;
75171;SDS011;63750;52.418;20.742;2022-11-11T10:15:12;15.80;;;12.30;;
75171;SDS011;63750;52.418;20.742;2022-11-11T10:17:44;18.50;;;13.60;;
75171;SDS011;63750;52.418;20.742;2022-11-11T10:20:25;15.90;;;12.80;;
75171;SDS011;63750;52.418;20.742;2022-11-11T10:22:59;15.80;;;12.30;;
75171;SDS011;63750;52.418;20.742;2022-11-11T10:25:31;17.90;;;12.40;;
75171;SDS011;63750;52.418;20.742;2022-11-11T10:28:00;16.40;;;12.60;;
75171;SDS011;63750;52.418;20.742;2022-11-11T10:30:30;17.50;;;13.40;;
75171;SDS011;63750;52.418;20.742;2022-11-11T10:32:59;14.70;;;12.40;;
75171;SDS011;63750;52.418;20.742;2022-11-11T10:35:30;16.40;;;13.10;;
75171;SDS011;63750;52.418;20.742;2022-11-11T10:38:02;18.30;;;13.60;;
75171;SDS011;63750;52.418;20.742;2022-11-11T10:40:45;17.80;;;13.40;;
75171;SDS011;63750;52.418;20.742;2022-11-11T10:43:20;17.40;;;12.60;;
75171;SDS011;63750;52.418;20.742;2022-11-11T10:45:51;17.20;;;11.90;;
75171;SDS011;63750;52.418;20.742;2022-11-11T10:48:28;16.90;;;12.30;;
75171;SDS011;63750;52.418;20.742;2022-11-11T10:51:03;17.80;;;12.10;;
75171;SDS011;63750;52.418;20.742;2022-11-11T10:53:34;17.20;;;12.00;;
75171;SDS011;63750;52.418;20.742;2022-11-11T10:56:12;14.20;;;11.90;;
75171;SDS011;63750;52.418;20.742;2022-11-11T10:58:47;18.20;;;12.70;;
75171;SDS011;63750;52.418;20.742;2022-11-11T11:01:26;18.20;;;12.50;;
75171;SDS011;63750;52.418;20.742;2022-11-11T11:04:00;13.70;;;11.20;;
75171;SDS011;63750;52.418;20.742;2022-11-11T11:06:32;13.80;;;11.40;;
75171;SDS011;63750;52.418;20.742;2022-11-11T11:09:07;14.80;;;11.00;;
75171;SDS011;63750;52.418;20.742;2022-11-11T11:11:43;18.00;;;12.40;;
75171;SDS011;63750;52.418;20.742;2022-11-11T11:14:18;14.10;;;10.40;;
75171;SDS011;63750;52.418;20.742;2022-11-11T11:16:53;15.60;;;11.00;;
75171;SDS011;63750;52.418;20.742;2022-11-11T11:19:25;12.50;;;10.70;;
75171;SDS011;63750;52.418;20.742;2022-11-11T11:21:56;13.30;;;10.10;;
75171;SDS011;63750;52.418;20.742;2022-11-11T11:24:26;17.70;;;10.90;;
75171;SDS011;63750;52.418;20.742;2022-11-11T11:26:56;14.00;;;11.30;;
75171;SDS011;63750;52.418;20.742;2022-11-11T11:29:27;14.70;;;11.00;;
75171;SDS011;63750;52.418;20.742;2022-11-11T11:31:57;15.30;;;12.20;;
75171;SDS011;63750;52.418;20.742;2022-11-11T11:34:49;17.00;;;11.10;;
75171;SDS011;63750;52.418;20.742;2022-11-11T11:37:19;14.80;;;11.00;;
75171;SDS011;63750;52.418;20.742;2022-11-11T11:39:51;14.20;;;10.40;;
75171;SDS011;63750;52.418;20.742;2022-11-11T11:42:27;14.60;;;11.10;;
75171;SDS011;63750;52.418;20.742;2022-11-11T11:44:57;14.10;;;11.40;;
75171;SDS011;63750;52.418;20.742;2022-11-11T11:47:47;14.60;;;10.80;;
75171;SDS011;63750;52.418;20.742;2022-11-11T11:50:33;14.00;;;10.20;;
75171;SDS011;63750;52.418;20.742;2022-11-11T11:53:10;16.30;;;10.80;;
75171;SDS011;63750;52.418;20.742;2022-11-11T11:55:53;15.40;;;10.70;;
75171;SDS011;63750;52.418;20.742;2022-11-11T11:58:28;13.90;;;10.30;;
75171;SDS011;63750;52.418;20.742;2022-11-11T12:01:03;12.90;;;10.70;;
75171;SDS011;63750;52.418;20.742;2022-11-11T12:06:44;14.00;;;9.40;;
75171;SDS011;63750;52.418;20.742;2022-11-11T12:09:26;11.40;;;9.70;;
75171;SDS011;63750;52.418;20.742;2022-11-11T12:12:04;12.10;;;10.20;;
75171;SDS011;63750;52.418;20.742;2022-11-11T12:14:47;16.10;;;10.50;;
75171;SDS011;63750;52.418;20.742;2022-11-11T12:17:27;15.00;;;11.10;;
75171;SDS011;63750;52.418;20.742;2022-11-11T12:20:03;12.30;;;10.60;;
75171;SDS011;63750;52.418;20.742;2022-11-11T12:22:45;15.50;;;10.90;;
75171;SDS011;63750;52.418;20.742;2022-11-11T12:25:34;14.00;;;10.90;;
75171;SDS011;63750;52.418;20.742;2022-11-11T12:28:18;14.70;;;11.50;;
75171;SDS011;63750;52.418;20.742;2022-11-11T12:30:57;13.50;;;10.90;;
75171;SDS011;63750;52.418;20.742;2022-11-11T12:33:42;15.50;;;11.80;;
75171;SDS011;63750;52.418;20.742;2022-11-11T12:36:25;13.80;;;11.60;;
75171;SDS011;63750;52.418;20.742;2022-11-11T12:39:02;17.10;;;12.30;;
75171;SDS011;63750;52.418;20.742;2022-11-11T12:41:44;14.40;;;11.70;;
75171;SDS011;63750;52.418;20.742;2022-11-11T12:44:19;16.10;;;12.20;;
75171;SDS011;63750;52.418;20.742;2022-11-11T12:47:01;16.50;;;11.90;;
75171;SDS011;63750;52.418;20.742;2022-11-11T12:49:47;16.90;;;12.60;;
75171;SDS011;63750;52.418;20.742;2022-11-11T12:52:29;17.20;;;14.20;;
75171;SDS011;63750;52.418;20.742;2022-11-11T12:55:15;18.30;;;14.20;;
75171;SDS011;63750;52.418;20.742;2022-11-11T12:57:55;19.00;;;14.10;;
75171;SDS011;63750;52.418;20.742;2022-11-11T13:00:35;17.60;;;13.50;;
75171;SDS011;63750;52.418;20.742;2022-11-11T13:06:18;18.10;;;12.00;;
75171;SDS011;63750;52.418;20.742;2022-11-11T13:09:16;14.10;;;12.30;;
75171;SDS011;63750;52.418;20.742;2022-11-11T13:12:03;17.40;;;12.90;;
75171;SDS011;63750;52.418;20.742;2022-11-11T13:14:43;14.10;;;12.30;;
75171;SDS011;63750;52.418;20.742;2022-11-11T13:17:20;17.40;;;13.20;;
75171;SDS011;63750;52.418;20.742;2022-11-11T13:19:50;14.40;;;12.20;;
75171;SDS011;63750;52.418;20.742;2022-11-11T13:22:24;14.60;;;12.50;;
75171;SDS011;63750;52.418;20.742;2022-11-11T13:24:54;19.30;;;12.20;;
75171;SDS011;63750;52.418;20.742;2022-11-11T13:27:28;16.50;;;12.50;;
75171;SDS011;63750;52.418;20.742;2022-11-11T13:33:00;19.00;;;12.30;;
75171;SDS011;63750;52.418;20.742;2022-11-11T13:35:34;15.50;;;11.20;;
75171;SDS011;63750;52.418;20.742;2022-11-11T13:38:05;16.90;;;11.80;;
75171;SDS011;63750;52.418;20.742;2022-11-11T13:40:38;14.40;;;11.50;;
75171;SDS011;63750;52.418;20.742;2022-11-11T13:43:14;16.10;;;12.30;;
75171;SDS011;63750;52.418;20.742;2022-11-11T13:45:49;17.80;;;12.40;;
75171;SDS011;63750;52.418;20.742;2022-11-11T13:48:22;15.30;;;12.50;;
75171;SDS011;63750;52.418;20.742;2022-11-11T13:50:54;16.70;;;13.10;;
75171;SDS011;63750;52.418;20.742;2022-11-11T13:53:39;16.30;;;13.60;;
75171;SDS011;63750;52.418;20.742;2022-11-11T13:56:13;15.60;;;12.60;;
75171;SDS011;63750;52.418;20.742;2022-11-11T13:58:52;15.30;;;13.30;;
75171;SDS011;63750;52.418;20.742;2022-11-11T14:01:23;17.80;;;14.00;;
75171;SDS011;63750;52.418;20.742;2022-11-11T14:04:00;18.80;;;14.10;;
75171;SDS011;63750;52.418;20.742;2022-11-11T14:06:43;17.40;;;14.20;;
75171;SDS011;63750;52.418;20.742;2022-11-11T14:12:32;19.00;;;14.70;;
75171;SDS011;63750;52.418;20.742;2022-11-11T14:15:11;19.80;;;15.70;;
75171;SDS011;63750;52.418;20.742;2022-11-11T14:18:32;20.50;;;16.30;;
75171;SDS011;63750;52.418;20.742;2022-11-11T14:21:06;21.80;;;17.40;;
75171;SDS011;63750;52.418;20.742;2022-11-11T14:23:35;22.80;;;17.90;;
75171;SDS011;63750;52.418;20.742;2022-11-11T14:26:19;20.00;;;16.30;;
75171;SDS011;63750;52.418;20.742;2022-11-11T14:28:55;19.80;;;17.50;;
75171;SDS011;63750;52.418;20.742;2022-11-11T14:34:36;21.00;;;18.40;;
75171;SDS011;63750;52.418;20.742;2022-11-11T14:37:16;20.00;;;17.80;;
75171;SDS011;63750;52.418;20.742;2022-11-11T14:39:55;21.60;;;18.60;;
75171;SDS011;63750;52.418;20.742;2022-11-11T14:54:23;31.20;;;24.90;;
75171;SDS011;63750;52.418;20.742;2022-11-11T14:57:00;28.10;;;22.20;;
75171;SDS011;63750;52.418;20.742;2022-11-11T14:59:32;27.70;;;21.00;;
75171;SDS011;63750;52.418;20.742;2022-11-11T15:02:02;23.70;;;20.00;;
75171;SDS011;63750;52.418;20.742;2022-11-11T15:04:39;20.30;;;18.00;;